sensor_id;sensor_type;location;lat;lon;timestamp;pressure;altitude;pressure_sealevel;temperature;humidity
73316;BME280;61545;53.726;-0.444;2023-03-01T00:01:30;1031.9;;;4.7;100.0
73316;BME280;61545;53.726;-0.444;2023-03-01T00:06:30;1031.9;;;4.8;100.0
73316;BME280;61545;53.726;-0.444;2023-03-01T00:11:31;1031.8;;;4.8;100.0
73316;BME280;61545;53.726;-0.444;2023-03-01T00:16:32;1031.9;;;4.7;100.0
73316;BME280;61545;53.726;-0.444;2023-03-01T00:21:31;1031.9;;;4.7;100.0
73316;BME280;61545;53.726;-0.444;2023-03-01T00:26:30;1031.9;;;4.5;100.0
73316;BME280;61545;53.726;-0.444;2023-03-01T00:31:31;1032.0;;;4.4;100.0
73316;BME280;61545;53.726;-0.444;2023-03-01T00:36:31;1031.9;;;4.5;100.0
73316;BME280;61545;53.726;-0.444;2023-03-01T00:41:30;1031.9;;;4.5;100.0
73316;BME280;61545;53.726;-0.444;2023-03-01T00:46:30;1031.9;;;4.5;100.0
73316;BME280;61545;53.726;-0.444;2023-03-01T00:51:31;1031.9;;;4.4;100.0
73316;BME280;61545;53.726;-0.444;2023-03-01T00:56:30;1031.8;;;4.4;100.0
73316;BME280;61545;53.726;-0.444;2023-03-01T01:01:30;1031.8;;;4.3;100.0
73316;BME280;61545;53.726;-0.444;2023-03-01T01:06:32;1031.7;;;4.4;100.0
73316;BME280;61545;53.726;-0.444;2023-03-01T01:11:30;1031.7;;;4.5;100.0
73316;BME280;61545;53.726;-0.444;2023-03-01T01:16:30;1031.6;;;4.4;100.0
73316;BME280;61545;53.726;-0.444;2023-03-01T01:21:31;1031.5;;;4.5;100.0
73316;BME280;61545;53.726;-0.444;2023-03-01T01:26:31;1031.5;;;4.5;100.0
73316;BME280;61545;53.726;-0.444;2023-03-01T01:31:31;1031.5;;;4.5;100.0
73316;BME280;61545;53.726;-0.444;2023-03-01T01:36:30;1031.4;;;4.4;100.0
73316;BME280;61545;53.726;-0.444;2023-03-01T01:41:30;1031.3;;;4.4;100.0
73316;BME280;61545;53.726;-0.444;2023-03-01T01:46:31;1031.3;;;4.3;100.0
73316;BME280;61545;53.726;-0.444;2023-03-01T01:51:32;1031.3;;;4.3;100.0
73316;BME280;61545;53.726;-0.444;2023-03-01T01:56:30;1031.3;;;4.5;100.0
73316;BME280;61545;53.726;-0.444;2023-03-01T02:01:30;1031.3;;;4.5;100.0
73316;BME280;61545;53.726;-0.444;2023-03-01T02:06:32;1031.2;;;unknown;100.0
73316;BME280;61545;53.726;-0.444;2023-03-01T02:11:31;1031.1;;;4.4;100.0
73316;BME280;61545;53.726;-0.444;2023-03-01T02:16:30;1031.1;;;4.3;100.0
73316;BME280;61545;53.726;-0.444;2023-03-01T02:21:37;1031.0;;;4.3;100.0
73316;BME280;61545;53.726;-0.444;2023-03-01T02:26:33;1030.9;;;4.2;100.0
73316;BME280;61545;53.726;-0.444;2023-03-01T02:31:30;1030.8;;;4.2;100.0
73316;BME280;61545;53.726;-0.444;2023-03-01T02:36:32;1030.8;;;4.3;100.0
73316;BME280;61545;53.726;-0.444;2023-03-01T02:41:33;1030.8;;;4.3;100.0
73316;BME280;61545;53.726;-0.444;2023-03-01T02:46:30;1030.8;;;4.3;100.0
73316;BME280;61545;53.726;-0.444;2023-03-01T02:51:38;1030.7;;;4.3;100.0
73316;BME280;61545;53.726;-0.444;2023-03-01T02:56:30;1030.7;;;4.2;100.0
73316;BME280;61545;53.726;-0.444;2023-03-01T03:01:30;1030.7;;;4.3;100.0
73316;BME280;61545;53.726;-0.444;2023-03-01T03:06:30;1030.7;;;4.3;100.0
73316;BME280;61545;53.726;-0.444;2023-03-01T03:11:30;1030.7;;;4.4;100.0
73316;BME280;61545;53.726;-0.444;2023-03-01T03:16:30;1030.7;;;4.4;100.0
73316;BME280;61545;53.726;-0.444;2023-03-01T03:21:30;1030.6;;;4.5;100.0
73316;BME280;61545;53.726;-0.444;2023-03-01T03:26:31;1030.6;;;4.4;100.0
73316;BME280;61545;53.726;-0.444;2023-03-01T03:31:30;1030.6;;;4.5;100.0
73316;BME280;61545;53.726;-0.444;2023-03-01T03:36:30;1030.6;;;4.4;100.0
73316;BME280;61545;53.726;-0.444;2023-03-01T03:41:30;1030.5;;;4.4;100.0
73316;BME280;61545;53.726;-0.444;2023-03-01T03:46:30;1030.4;;;4.4;100.0
73316;BME280;61545;53.726;-0.444;2023-03-01T03:51:30;1030.3;;;4.5;100.0
73316;BME280;61545;53.726;-0.444;2023-03-01T03:56:30;1030.3;;;4.5;100.0
73316;BME280;61545;53.726;-0.444;2023-03-01T04:01:30;1030.2;;;4.4;100.0
73316;BME280;61545;53.726;-0.444;2023-03-01T04:06:30;1030.1;;;4.4;100.0
73316;BME280;61545;53.726;-0.444;2023-03-01T04:11:30;1030.1;;;4.3;100.0
73316;BME280;61545;53.726;-0.444;2023-03-01T04:16:30;1030.2;;;4.3;100.0
73316;BME280;61545;53.726;-0.444;2023-03-01T04:21:30;1030.2;;;4.4;100.0
73316;BME280;61545;53.726;-0.444;2023-03-01T04:26:30;1030.2;;;4.3;100.0
73316;BME280;61545;53.726;-0.444;2023-03-01T04:31:30;1030.0;;;4.3;100.0
73316;BME280;61545;53.726;-0.444;2023-03-01T04:36:30;1030.0;;;4.3;100.0
73316;BME280;61545;53.726;-0.444;2023-03-01T04:41:30;1030.0;;;4.3;100.0
73316;BME280;61545;53.726;-0.444;2023-03-01T04:46:30;1029.9;;;4.3;100.0
73316;BME280;61545;53.726;-0.444;2023-03-01T04:51:31;1029.9;;;4.3;100.0
73316;BME280;61545;53.726;-0.444;2023-03-01T04:56:30;1029.9;;;4.4;100.0
73316;BME280;61545;53.726;-0.444;2023-03-01T05:01:30;1029.9;;;4.3;100.0
73316;BME280;61545;53.726;-0.444;2023-03-01T05:06:31;1029.8;;;4.4;100.0
73316;BME280;61545;53.726;-0.444;2023-03-01T05:11:31;1029.8;;;4.4;100.0
73316;BME280;61545;53.726;-0.444;2023-03-01T05:16:31;1029.8;;;4.3;100.0
73316;BME280;61545;53.726;-0.444;2023-03-01T05:21:30;1029.8;;;4.3;100.0
73316;BME280;61545;53.726;-0.444;2023-03-01T05:26:30;1029.8;;;4.3;100.0
73316;BME280;61545;53.726;-0.444;2023-03-01T05:31:30;1029.9;;;4.3;100.0
73316;BME280;61545;53.726;-0.444;2023-03-01T05:36:30;1029.7;;;4.3;100.0
73316;BME280;61545;53.726;-0.444;2023-03-01T05:41:30;1029.7;;;4.2;100.0
73316;BME280;61545;53.726;-0.444;2023-03-01T05:46:30;1029.7;;;4.2;100.0
73316;BME280;61545;53.726;-0.444;2023-03-01T05:51:30;1029.7;;;4.2;100.0
73316;BME280;61545;53.726;-0.444;2023-03-01T05:56:32;1029.6;;;4.3;100.0
73316;BME280;61545;53.726;-0.444;2023-03-01T06:01:30;1029.7;;;4.2;100.0
73316;BME280;61545;53.726;-0.444;2023-03-01T06:06:33;1029.6;;;4.2;100.0
73316;BME280;61545;53.726;-0.444;2023-03-01T06:11:30;1029.6;;;4.3;100.0
73316;BME280;61545;53.726;-0.444;2023-03-01T06:16:30;1029.6;;;4.2;100.0
73316;BME280;61545;53.726;-0.444;2023-03-01T06:21:30;1029.6;;;4.2;100.0
73316;BME280;61545;53.726;-0.444;2023-03-01T06:26:30;1029.7;;;4.2;100.0
73316;BME280;61545;53.726;-0.444;2023-03-01T06:31:30;1029.6;;;4.2;100.0
73316;BME280;61545;53.726;-0.444;2023-03-01T06:36:30;1029.5;;;4.2;100.0
73316;BME280;61545;53.726;-0.444;2023-03-01T06:41:30;1029.5;;;4.2;100.0
73316;BME280;61545;53.726;-0.444;2023-03-01T06:46:30;1029.6;;;4.2;100.0
73316;BME280;61545;53.726;-0.444;2023-03-01T06:51:30;1029.6;;;4.2;100.0
73316;BME280;61545;53.726;-0.444;2023-03-01T06:56:31;1029.6;;;4.2;100.0
73316;BME280;61545;53.726;-0.444;2023-03-01T07:01:30;1029.6;;;4.3;100.0
73316;BME280;61545;53.726;-0.444;2023-03-01T07:06:30;1029.5;;;4.3;100.0
73316;BME280;61545;53.726;-0.444;2023-03-01T07:11:30;1029.6;;;4.3;100.0
73316;BME280;61545;53.726;-0.444;2023-03-01T07:16:30;1029.6;;;4.3;100.0
73316;BME280;61545;53.726;-0.444;2023-03-01T07:21:31;1029.7;;;4.4;100.0
73316;BME280;61545;53.726;-0.444;2023-03-01T07:26:30;1029.6;;;4.4;100.0
73316;BME280;61545;53.726;-0.444;2023-03-01T07:31:31;1029.6;;;4.5;100.0
73316;BME280;61545;53.726;-0.444;2023-03-01T07:36:30;1029.6;;;4.6;100.0
73316;BME280;61545;53.726;-0.444;2023-03-01T07:41:30;1029.6;;;4.6;100.0
73316;BME280;61545;53.726;-0.444;2023-03-01T07:46:30;1029.6;;;4.6;100.0
73316;BME280;61545;53.726;-0.444;2023-03-01T07:51:30;1029.7;;;4.7;100.0
73316;BME280;61545;53.726;-0.444;2023-03-01T07:56:30;1029.6;;;4.7;100.0
73316;BME280;61545;53.726;-0.444;2023-03-01T08:01:30;1029.6;;;4.7;100.0
73316;BME280;61545;53.726;-0.444;2023-03-01T08:06:30;1029.6;;;4.8;100.0
73316;BME280;61545;53.726;-0.444;2023-03-01T08:11:30;1029.6;;;4.7;100.0
73316;BME280;61545;53.726;-0.444;2023-03-01T08:16:30;1029.6;;;4.8;100.0
73316;BME280;61545;53.726;-0.444;2023-03-01T08:21:30;1029.6;;;4.8;100.0
73316;BME280;61545;53.726;-0.444;2023-03-01T08:26:31;1029.6;;;4.9;100.0
73316;BME280;61545;53.726;-0.444;2023-03-01T08:31:32;1029.6;;;4.9;100.0
73316;BME280;61545;53.726;-0.444;2023-03-01T08:36:31;1029.7;;;4.9;100.0
73316;BME280;61545;53.726;-0.444;2023-03-01T08:41:30;1029.9;;;4.9;100.0
73316;BME280;61545;53.726;-0.444;2023-03-01T08:46:31;1029.6;;;5.0;100.0
73316;BME280;61545;53.726;-0.444;2023-03-01T08:51:30;1029.6;;;5.1;100.0
73316;BME280;61545;53.726;-0.444;2023-03-01T08:56:30;1029.6;;;6.2;100.0
73316;BME280;61545;53.726;-0.444;2023-03-01T09:01:30;1029.5;;;5.8;100.0
73316;BME280;61545;53.726;-0.444;2023-03-01T09:06:31;1029.6;;;6.5;100.0
73316;BME280;61545;53.726;-0.444;2023-03-01T09:11:30;1029.5;;;6.5;100.0
73316;BME280;61545;53.726;-0.444;2023-03-01T09:16:30;1029.4;;;6.0;100.0
73316;BME280;61545;53.726;-0.444;2023-03-01T09:21:30;1029.3;;;5.7;100.0
73316;BME280;61545;53.726;-0.444;2023-03-01T09:26:30;1029.3;;;5.8;100.0
73316;BME280;61545;53.726;-0.444;2023-03-01T09:31:30;1029.2;;;6.0;100.0
73316;BME280;61545;53.726;-0.444;2023-03-01T09:36:30;1029.2;;;5.8;100.0
73316;BME280;61545;53.726;-0.444;2023-03-01T09:41:38;1029.2;;;5.9;100.0
73316;BME280;61545;53.726;-0.444;2023-03-01T09:46:32;1029.2;;;5.7;100.0
73316;BME280;61545;53.726;-0.444;2023-03-01T09:51:32;1029.1;;;6.0;100.0
73316;BME280;61545;53.726;-0.444;2023-03-01T09:56:33;1029.0;;;6.0;100.0
73316;BME280;61545;53.726;-0.444;2023-03-01T10:01:32;1029.0;;;5.9;100.0
73316;BME280;61545;53.726;-0.444;2023-03-01T10:06:30;1028.9;;;6.0;100.0
73316;BME280;61545;53.726;-0.444;2023-03-01T10:11:32;1028.9;;;6.0;100.0
73316;BME280;61545;53.726;-0.444;2023-03-01T10:16:37;1028.9;;;6.1;100.0
73316;BME280;61545;53.726;-0.444;2023-03-01T10:21:30;1029.0;;;6.2;100.0
73316;BME280;61545;53.726;-0.444;2023-03-01T10:26:38;1028.9;;;6.2;100.0
73316;BME280;61545;53.726;-0.444;2023-03-01T10:31:37;1028.9;;;6.3;100.0
73316;BME280;61545;53.726;-0.444;2023-03-01T10:36:31;1028.9;;;6.2;100.0
73316;BME280;61545;53.726;-0.444;2023-03-01T10:41:30;1029.0;;;6.1;100.0
73316;BME280;61545;53.726;-0.444;2023-03-01T10:46:32;1028.9;;;6.1;100.0
73316;BME280;61545;53.726;-0.444;2023-03-01T10:51:30;1028.8;;;6.0;100.0
73316;BME280;61545;53.726;-0.444;2023-03-01T10:56:30;1028.8;;;6.0;100.0
73316;BME280;61545;53.726;-0.444;2023-03-01T11:01:32;1028.9;;;5.9;100.0
73316;BME280;61545;53.726;-0.444;2023-03-01T11:06:31;1028.9;;;5.9;100.0
73316;BME280;61545;53.726;-0.444;2023-03-01T11:11:32;1028.8;;;6.0;100.0
73316;BME280;61545;53.726;-0.444;2023-03-01T11:16:32;1028.7;;;5.7;100.0
73316;BME280;61545;53.726;-0.444;2023-03-01T11:21:32;1028.7;;;5.8;100.0
73316;BME280;61545;53.726;-0.444;2023-03-01T11:26:31;1028.6;;;6.0;100.0
73316;BME280;61545;53.726;-0.444;2023-03-01T11:31:31;1028.5;;;6.3;100.0
73316;BME280;61545;53.726;-0.444;2023-03-01T11:36:33;1028.6;;;6.1;100.0
73316;BME280;61545;53.726;-0.444;2023-03-01T11:41:31;1028.5;;;6.1;100.0
73316;BME280;61545;53.726;-0.444;2023-03-01T11:51:38;1028.3;;;6.4;100.0
73316;BME280;61545;53.726;-0.444;2023-03-01T11:56:32;1028.2;;;6.7;100.0
73316;BME280;61545;53.726;-0.444;2023-03-01T12:01:36;1028.1;;;6.7;100.0
73316;BME280;61545;53.726;-0.444;2023-03-01T12:06:37;1028.1;;;6.5;100.0
73316;BME280;61545;53.726;-0.444;2023-03-01T12:11:39;1028.1;;;6.3;100.0
73316;BME280;61545;53.726;-0.444;2023-03-01T12:16:37;1027.9;;;6.5;100.0
73316;BME280;61545;53.726;-0.444;2023-03-01T12:21:39;1027.9;;;6.6;100.0
73316;BME280;61545;53.726;-0.444;2023-03-01T12:26:31;1027.9;;;6.7;100.0
73316;BME280;61545;53.726;-0.444;2023-03-01T12:31:42;1027.8;;;6.7;100.0
73316;BME280;61545;53.726;-0.444;2023-03-01T12:36:41;1027.7;;;6.8;100.0
73316;BME280;61545;53.726;-0.444;2023-03-01T12:41:47;1027.6;;;6.5;100.0
73316;BME280;61545;53.726;-0.444;2023-03-01T12:46:38;1027.5;;;6.5;100.0
73316;BME280;61545;53.726;-0.444;2023-03-01T12:51:31;1027.4;;;6.5;100.0
73316;BME280;61545;53.726;-0.444;2023-03-01T12:56:31;1027.3;;;6.7;100.0
73316;BME280;61545;53.726;-0.444;2023-03-01T13:01:35;1027.2;;;6.7;100.0
73316;BME280;61545;53.726;-0.444;2023-03-01T13:06:33;1027.2;;;6.2;100.0
73316;BME280;61545;53.726;-0.444;2023-03-01T13:11:30;1027.1;;;6.2;100.0
73316;BME280;61545;53.726;-0.444;2023-03-01T13:16:46;1027.1;;;6.1;100.0
73316;BME280;61545;53.726;-0.444;2023-03-01T13:21:31;1027.0;;;6.2;100.0
73316;BME280;61545;53.726;-0.444;2023-03-01T13:26:30;1026.9;;;unknown;100.0
73316;BME280;61545;53.726;-0.444;2023-03-01T13:36:47;1026.6;;;6.8;100.0
73316;BME280;61545;53.726;-0.444;2023-03-01T13:41:49;1026.5;;;6.8;100.0
73316;BME280;61545;53.726;-0.444;2023-03-01T13:46:30;1026.5;;;6.8;100.0
73316;BME280;61545;53.726;-0.444;2023-03-01T13:51:30;1026.4;;;6.8;100.0
73316;BME280;61545;53.726;-0.444;2023-03-01T13:56:35;1026.4;;;6.5;100.0
73316;BME280;61545;53.726;-0.444;2023-03-01T14:01:31;1026.3;;;6.7;100.0
73316;BME280;61545;53.726;-0.444;2023-03-01T14:06:32;1026.3;;;6.7;100.0
73316;BME280;61545;53.726;-0.444;2023-03-01T14:11:40;1026.3;;;6.6;100.0
73316;BME280;61545;53.726;-0.444;2023-03-01T14:16:35;1026.2;;;6.6;100.0
73316;BME280;61545;53.726;-0.444;2023-03-01T14:21:30;1026.1;;;6.7;100.0
73316;BME280;61545;53.726;-0.444;2023-03-01T14:26:30;1026.2;;;6.6;100.0
73316;BME280;61545;53.726;-0.444;2023-03-01T14:31:35;1026.1;;;6.3;100.0
73316;BME280;61545;53.726;-0.444;2023-03-01T14:36:32;1026.2;;;5.8;100.0
73316;BME280;61545;53.726;-0.444;2023-03-01T14:41:33;1026.1;;;5.7;100.0
73316;BME280;61545;53.726;-0.444;2023-03-01T14:46:32;1026.0;;;5.6;100.0
73316;BME280;61545;53.726;-0.444;2023-03-01T14:51:35;1025.8;;;5.6;100.0
73316;BME280;61545;53.726;-0.444;2023-03-01T14:56:42;1025.7;;;5.7;100.0
73316;BME280;61545;53.726;-0.444;2023-03-01T15:01:30;1025.7;;;5.6;100.0
73316;BME280;61545;53.726;-0.444;2023-03-01T15:06:30;1025.7;;;5.7;100.0
73316;BME280;61545;53.726;-0.444;2023-03-01T15:11:31;1025.6;;;5.5;100.0
73316;BME280;61545;53.726;-0.444;2023-03-01T15:16:31;1025.5;;;5.5;100.0
73316;BME280;61545;53.726;-0.444;2023-03-01T15:21:31;1025.4;;;5.6;100.0
73316;BME280;61545;53.726;-0.444;2023-03-01T15:26:32;1025.3;;;5.8;100.0
73316;BME280;61545;53.726;-0.444;2023-03-01T15:31:31;1025.2;;;5.8;100.0
73316;BME280;61545;53.726;-0.444;2023-03-01T15:36:35;1025.2;;;6.1;100.0
73316;BME280;61545;53.726;-0.444;2023-03-01T15:41:31;1025.3;;;5.8;100.0
73316;BME280;61545;53.726;-0.444;2023-03-01T15:46:31;1025.1;;;5.7;100.0
73316;BME280;61545;53.726;-0.444;2023-03-01T15:51:33;1024.9;;;5.7;100.0
73316;BME280;61545;53.726;-0.444;2023-03-01T15:56:31;1024.9;;;5.8;100.0
73316;BME280;61545;53.726;-0.444;2023-03-01T16:01:30;1024.9;;;5.9;100.0
73316;BME280;61545;53.726;-0.444;2023-03-01T16:06:31;1024.9;;;5.9;100.0
73316;BME280;61545;53.726;-0.444;2023-03-01T16:11:31;1024.8;;;6.0;100.0
73316;BME280;61545;53.726;-0.444;2023-03-01T16:16:30;1024.9;;;5.9;100.0
73316;BME280;61545;53.726;-0.444;2023-03-01T16:21:30;1024.9;;;5.8;100.0
73316;BME280;61545;53.726;-0.444;2023-03-01T16:26:31;1024.8;;;5.5;100.0
73316;BME280;61545;53.726;-0.444;2023-03-01T16:31:30;1024.8;;;5.3;100.0
73316;BME280;61545;53.726;-0.444;2023-03-01T16:36:31;1024.7;;;5.3;100.0
73316;BME280;61545;53.726;-0.444;2023-03-01T16:41:30;1024.7;;;5.5;100.0
73316;BME280;61545;53.726;-0.444;2023-03-01T16:46:31;1024.7;;;5.4;100.0
73316;BME280;61545;53.726;-0.444;2023-03-01T16:51:31;1024.7;;;5.5;100.0
73316;BME280;61545;53.726;-0.444;2023-03-01T16:56:31;1024.7;;;5.4;100.0
73316;BME280;61545;53.726;-0.444;2023-03-01T17:01:31;1024.7;;;5.3;100.0
73316;BME280;61545;53.726;-0.444;2023-03-01T17:06:31;1024.7;;;5.3;100.0
73316;BME280;61545;53.726;-0.444;2023-03-01T17:11:31;1024.7;;;5.3;100.0
73316;BME280;61545;53.726;-0.444;2023-03-01T17:16:31;1024.7;;;5.3;100.0
73316;BME280;61545;53.726;-0.444;2023-03-01T17:21:31;1024.8;;;5.3;100.0
73316;BME280;61545;53.726;-0.444;2023-03-01T17:26:31;1024.8;;;5.2;100.0
73316;BME280;61545;53.726;-0.444;2023-03-01T17:31:31;1024.7;;;5.2;100.0
73316;BME280;61545;53.726;-0.444;2023-03-01T17:36:31;1024.7;;;5.2;100.0
73316;BME280;61545;53.726;-0.444;2023-03-01T17:41:31;1024.7;;;5.2;100.0
73316;BME280;61545;53.726;-0.444;2023-03-01T17:46:31;1024.7;;;5.1;100.0
73316;BME280;61545;53.726;-0.444;2023-03-01T17:51:31;1024.7;;;5.1;100.0
73316;BME280;61545;53.726;-0.444;2023-03-01T17:56:31;1024.6;;;5.1;100.0
73316;BME280;61545;53.726;-0.444;2023-03-01T18:01:31;1024.5;;;5.1;100.0
73316;BME280;61545;53.726;-0.444;2023-03-01T18:06:31;1024.6;;;5.2;100.0
73316;BME280;61545;53.726;-0.444;2023-03-01T18:11:31;1024.6;;;5.2;100.0
73316;BME280;61545;53.726;-0.444;2023-03-01T18:16:31;1024.7;;;5.2;100.0
73316;BME280;61545;53.726;-0.444;2023-03-01T18:21:32;1024.7;;;5.1;100.0
73316;BME280;61545;53.726;-0.444;2023-03-01T18:26:31;1024.7;;;5.2;100.0
73316;BME280;61545;53.726;-0.444;2023-03-01T18:31:31;1024.8;;;5.2;100.0
73316;BME280;61545;53.726;-0.444;2023-03-01T18:36:32;1024.8;;;5.2;100.0
73316;BME280;61545;53.726;-0.444;2023-03-01T18:41:31;1024.8;;;5.2;100.0
73316;BME280;61545;53.726;-0.444;2023-03-01T18:46:31;1024.8;;;5.2;100.0
73316;BME280;61545;53.726;-0.444;2023-03-01T18:51:31;1024.7;;;5.1;100.0
73316;BME280;61545;53.726;-0.444;2023-03-01T18:56:32;1024.8;;;5.1;100.0
73316;BME280;61545;53.726;-0.444;2023-03-01T19:01:31;1024.7;;;5.0;100.0
73316;BME280;61545;53.726;-0.444;2023-03-01T19:06:32;1024.7;;;5.0;100.0
73316;BME280;61545;53.726;-0.444;2023-03-01T19:11:31;1024.6;;;4.9;100.0
73316;BME280;61545;53.726;-0.444;2023-03-01T19:16:31;1024.6;;;4.9;100.0
73316;BME280;61545;53.726;-0.444;2023-03-01T19:21:31;1024.6;;;4.8;100.0
73316;BME280;61545;53.726;-0.444;2023-03-01T19:26:31;1024.7;;;4.9;100.0
73316;BME280;61545;53.726;-0.444;2023-03-01T19:31:31;1024.7;;;4.9;100.0
73316;BME280;61545;53.726;-0.444;2023-03-01T19:36:32;1024.7;;;4.8;100.0
73316;BME280;61545;53.726;-0.444;2023-03-01T19:41:31;1024.6;;;4.8;100.0
73316;BME280;61545;53.726;-0.444;2023-03-01T19:46:31;1024.6;;;4.8;100.0
73316;BME280;61545;53.726;-0.444;2023-03-01T19:51:31;1024.6;;;4.8;100.0
73316;BME280;61545;53.726;-0.444;2023-03-01T19:56:31;1024.7;;;4.8;100.0
73316;BME280;61545;53.726;-0.444;2023-03-01T20:01:31;1024.6;;;4.8;100.0
73316;BME280;61545;53.726;-0.444;2023-03-01T20:06:31;1024.6;;;4.8;100.0
73316;BME280;61545;53.726;-0.444;2023-03-01T20:11:31;1024.7;;;4.8;100.0
73316;BME280;61545;53.726;-0.444;2023-03-01T20:16:31;1024.6;;;4.8;100.0
73316;BME280;61545;53.726;-0.444;2023-03-01T20:21:31;1024.6;;;4.8;100.0
73316;BME280;61545;53.726;-0.444;2023-03-01T20:26:31;1024.6;;;4.8;100.0
73316;BME280;61545;53.726;-0.444;2023-03-01T20:31:31;1024.7;;;4.8;100.0
73316;BME280;61545;53.726;-0.444;2023-03-01T20:36:31;1024.7;;;4.8;100.0
73316;BME280;61545;53.726;-0.444;2023-03-01T20:41:31;1024.6;;;4.8;100.0
73316;BME280;61545;53.726;-0.444;2023-03-01T20:46:31;1024.6;;;4.8;100.0
73316;BME280;61545;53.726;-0.444;2023-03-01T20:51:31;1024.6;;;4.8;100.0
73316;BME280;61545;53.726;-0.444;2023-03-01T20:56:31;1024.6;;;4.8;100.0
73316;BME280;61545;53.726;-0.444;2023-03-01T21:01:31;1024.6;;;4.8;100.0
73316;BME280;61545;53.726;-0.444;2023-03-01T21:06:31;1024.6;;;4.8;100.0
73316;BME280;61545;53.726;-0.444;2023-03-01T21:11:31;1024.6;;;4.8;100.0
73316;BME280;61545;53.726;-0.444;2023-03-01T21:16:31;1024.7;;;4.8;100.0
73316;BME280;61545;53.726;-0.444;2023-03-01T21:21:31;1024.7;;;4.8;100.0
73316;BME280;61545;53.726;-0.444;2023-03-01T21:26:31;1024.7;;;4.8;100.0
73316;BME280;61545;53.726;-0.444;2023-03-01T21:31:31;1024.7;;;4.7;100.0
73316;BME280;61545;53.726;-0.444;2023-03-01T21:36:31;1024.8;;;4.7;100.0
73316;BME280;61545;53.726;-0.444;2023-03-01T21:41:32;1024.8;;;4.7;100.0
73316;BME280;61545;53.726;-0.444;2023-03-01T21:46:32;1024.8;;;4.7;100.0
73316;BME280;61545;53.726;-0.444;2023-03-01T21:51:31;1024.8;;;4.7;100.0
73316;BME280;61545;53.726;-0.444;2023-03-01T21:56:32;1024.8;;;4.7;100.0
73316;BME280;61545;53.726;-0.444;2023-03-01T22:01:31;1024.8;;;4.7;100.0
73316;BME280;61545;53.726;-0.444;2023-03-01T22:06:32;1024.9;;;4.7;100.0
73316;BME280;61545;53.726;-0.444;2023-03-01T22:11:31;1024.8;;;4.7;100.0
73316;BME280;61545;53.726;-0.444;2023-03-01T22:16:32;1024.9;;;4.7;100.0
73316;BME280;61545;53.726;-0.444;2023-03-01T22:21:31;1024.9;;;4.7;100.0
73316;BME280;61545;53.726;-0.444;2023-03-01T22:26:31;1024.9;;;4.7;100.0
73316;BME280;61545;53.726;-0.444;2023-03-01T22:31:31;1024.8;;;4.7;100.0
73316;BME280;61545;53.726;-0.444;2023-03-01T22:36:31;1024.8;;;4.7;100.0
73316;BME280;61545;53.726;-0.444;2023-03-01T22:41:32;1024.8;;;4.6;100.0
73316;BME280;61545;53.726;-0.444;2023-03-01T22:46:31;1024.8;;;4.7;100.0
73316;BME280;61545;53.726;-0.444;2023-03-01T22:51:33;1024.8;;;4.7;100.0
73316;BME280;61545;53.726;-0.444;2023-03-01T22:56:32;1024.9;;;4.6;100.0
73316;BME280;61545;53.726;-0.444;2023-03-01T23:01:31;1024.8;;;4.6;100.0
73316;BME280;61545;53.726;-0.444;2023-03-01T23:06:31;1024.8;;;4.7;100.0
73316;BME280;61545;53.726;-0.444;2023-03-01T23:11:31;1024.8;;;4.7;100.0
73316;BME280;61545;53.726;-0.444;2023-03-01T23:16:31;1024.9;;;4.7;100.0
73316;BME280;61545;53.726;-0.444;2023-03-01T23:21:31;1024.9;;;4.7;100.0
73316;BME280;61545;53.726;-0.444;2023-03-01T23:26:31;1024.9;;;4.7;100.0
73316;BME280;61545;53.726;-0.444;2023-03-01T23:31:31;1024.8;;;4.7;100.0
73316;BME280;61545;53.726;-0.444;2023-03-01T23:36:31;1024.8;;;4.7;100.0
73316;BME280;61545;53.726;-0.444;2023-03-01T23:41:32;1024.8;;;4.7;100.0
73316;BME280;61545;53.726;-0.444;2023-03-01T23:46:32;1024.8;;;4.7;100.0
73316;BME280;61545;53.726;-0.444;2023-03-01T23:51:31;1024.8;;;4.6;100.0
73316;BME280;61545;53.726;-0.444;2023-03-01T23:56:32;1024.8;;;4.7;100.0
